createdAt,value
2022-10-17T00:00:37.323Z,3.60
2022-10-17T00:03:04.407Z,4.38
2022-10-17T00:05:30.997Z,4.00
2022-10-17T00:07:57.568Z,4.38
2022-10-17T00:10:24.804Z,3.75
2022-10-17T00:12:51.932Z,3.97
2022-10-17T00:15:20.577Z,3.80
2022-10-17T00:17:47.269Z,4.35
2022-10-17T00:20:15.376Z,3.90
2022-10-17T00:22:42.261Z,3.70
2022-10-17T00:25:09.310Z,3.95
2022-10-17T00:27:40.662Z,4.45
2022-10-17T00:30:11.374Z,5.15
2022-10-17T00:32:37.919Z,4.32
2022-10-17T00:35:04.767Z,3.80
2022-10-17T00:37:32.380Z,3.70
2022-10-17T00:39:59.200Z,4.55
2022-10-17T00:42:27.219Z,4.30
2022-10-17T00:45:08.714Z,3.88
2022-10-17T00:47:36.898Z,4.57
2022-10-17T00:50:06.692Z,4.43
2022-10-17T00:52:34.125Z,4.90
2022-10-17T00:55:16.588Z,4.72
2022-10-17T00:57:45.223Z,4.30
2022-10-17T01:00:13.236Z,4.28
2022-10-17T01:02:39.949Z,4.40
2022-10-17T01:05:07.683Z,4.03
2022-10-17T01:07:37.182Z,4.20
2022-10-17T01:10:05.429Z,4.25
2022-10-17T01:13:16.532Z,3.90
2022-10-17T01:16:09.494Z,4.40
2022-10-17T01:19:11.379Z,4.78
2022-10-17T01:21:37.945Z,4.55
2022-10-17T01:24:16.586Z,4.00
2022-10-17T01:27:04.941Z,3.85
2022-10-17T01:30:00.409Z,4.30
2022-10-17T01:32:41.472Z,4.20
2022-10-17T01:35:11.058Z,4.25
2022-10-17T01:37:43.515Z,4.05
2022-10-17T01:40:16.534Z,4.28
2022-10-17T01:42:57.601Z,3.88
2022-10-17T01:45:37.459Z,4.03
2022-10-17T01:48:11.573Z,4.35
2022-10-17T01:50:43.609Z,4.30
2022-10-17T01:53:25.594Z,3.90
2022-10-17T01:55:54.800Z,4.03
2022-10-17T01:58:40.343Z,3.63
2022-10-17T02:01:09.793Z,3.85
2022-10-17T02:03:37.665Z,4.70
2022-10-17T02:06:04.632Z,4.18
2022-10-17T02:08:46.333Z,3.47
2022-10-17T02:11:25.008Z,4.63
2022-10-17T02:13:58.921Z,4.18
2022-10-17T02:16:38.282Z,4.22
2022-10-17T02:19:29.183Z,4.10
2022-10-17T02:22:26.302Z,4.80
2022-10-17T02:24:56.573Z,3.70
2022-10-17T02:27:33.331Z,3.88
2022-10-17T02:30:08.697Z,3.95
2022-10-17T02:32:45.455Z,3.65
2022-10-17T02:35:16.200Z,3.40
2022-10-17T02:37:45.891Z,4.00
2022-10-17T02:40:15.291Z,4.13
2022-10-17T02:42:45.081Z,4.30
2022-10-17T02:45:12.927Z,4.00
2022-10-17T02:47:57.379Z,4.05
2022-10-17T02:50:33.520Z,4.82
2022-10-17T02:53:09.008Z,4.95
2022-10-17T02:55:43.591Z,4.97
2022-10-17T02:58:20.755Z,4.43
2022-10-17T03:00:48.020Z,4.55
2022-10-17T03:03:22.442Z,4.40
2022-10-17T03:05:49.129Z,4.53
2022-10-17T03:08:15.785Z,4.55
2022-10-17T03:10:42.301Z,4.82
2022-10-17T03:13:08.942Z,4.00
2022-10-17T03:15:35.616Z,3.97
2022-10-17T03:18:02.477Z,4.88
2022-10-17T03:20:29.257Z,4.00
2022-10-17T03:22:55.791Z,3.15
2022-10-17T03:25:22.340Z,4.35
2022-10-17T03:27:48.953Z,3.72
2022-10-17T03:30:15.510Z,3.45
2022-10-17T03:32:42.043Z,3.75
2022-10-17T03:35:13.990Z,3.53
2022-10-17T03:37:41.767Z,3.72
2022-10-17T03:40:08.732Z,3.72
2022-10-17T03:42:35.276Z,4.03
2022-10-17T03:45:01.881Z,4.25
2022-10-17T03:47:29.452Z,4.80
2022-10-17T03:49:56.138Z,5.20
2022-10-17T03:52:22.865Z,4.97
2022-10-17T03:54:50.874Z,5.85
2022-10-17T03:57:18.804Z,5.57
2022-10-17T03:59:45.340Z,5.43
2022-10-17T04:02:11.932Z,5.53
2022-10-17T04:04:38.572Z,6.10
2022-10-17T04:07:05.142Z,5.15
2022-10-17T04:09:31.692Z,6.53
2022-10-17T04:11:58.263Z,6.70
2022-10-17T04:14:24.796Z,5.75
2022-10-17T04:16:51.499Z,5.53
2022-10-17T04:19:18.046Z,5.20
2022-10-17T04:21:44.585Z,5.22
2022-10-17T04:24:12.161Z,7.60
2022-10-17T04:26:38.705Z,7.00
2022-10-17T04:29:05.256Z,7.70
2022-10-17T04:31:32.494Z,7.80
2022-10-17T04:33:59.243Z,6.90
2022-10-17T04:36:26.789Z,7.63
2022-10-17T04:38:55.241Z,7.18
2022-10-17T04:41:21.795Z,8.63
2022-10-17T04:43:51.040Z,7.28
2022-10-17T04:46:18.570Z,6.75
2022-10-17T04:48:45.344Z,6.40
2022-10-17T04:51:14.650Z,6.93
2022-10-17T04:53:42.555Z,7.53
2022-10-17T04:56:15.417Z,10.82
2022-10-17T04:58:43.393Z,11.10
2022-10-17T05:01:22.900Z,8.73
2022-10-17T05:03:49.830Z,9.35
2022-10-17T05:06:22.976Z,9.50
2022-10-17T05:08:49.728Z,9.13
2022-10-17T05:11:23.683Z,8.98
2022-10-17T05:13:52.796Z,8.07
2022-10-17T05:16:20.154Z,7.55
2022-10-17T05:18:53.004Z,7.45
2022-10-17T05:21:20.834Z,7.70
2022-10-17T05:23:47.504Z,7.07
2022-10-17T05:26:14.670Z,7.88
2022-10-17T05:28:41.624Z,7.72
2022-10-17T05:31:10.490Z,8.27
2022-10-17T05:33:38.345Z,7.07
2022-10-17T05:36:06.068Z,6.78
2022-10-17T05:38:32.860Z,6.00
2022-10-17T05:41:00.929Z,6.40
2022-10-17T05:43:29.546Z,6.50
2022-10-17T05:45:56.442Z,7.30
2022-10-17T05:48:24.022Z,7.63
2022-10-17T05:50:57.301Z,6.93
2022-10-17T05:53:23.842Z,8.15
2022-10-17T05:56:01.236Z,7.32
2022-10-17T06:01:15.228Z,7.00
2022-10-17T06:03:41.760Z,6.18
2022-10-17T06:06:13.041Z,6.80
2022-10-17T06:08:40.020Z,7.35
2022-10-17T06:11:09.893Z,6.25
2022-10-17T06:13:38.342Z,5.40
2022-10-17T06:16:05.549Z,5.60
2022-10-17T06:18:33.581Z,4.93
2022-10-17T06:21:06.202Z,6.97
2022-10-17T06:23:32.925Z,7.28
2022-10-17T06:26:04.450Z,7.47
2022-10-17T06:28:31.185Z,6.75
2022-10-17T06:30:57.871Z,7.32
2022-10-17T06:33:24.534Z,7.28
2022-10-17T06:35:52.933Z,9.50
2022-10-17T06:38:19.825Z,9.40
2022-10-17T06:40:46.402Z,8.68
2022-10-17T06:43:13.225Z,8.75
2022-10-17T06:45:40.438Z,8.52
2022-10-17T06:48:08.158Z,8.05
2022-10-17T06:50:35.623Z,8.27
2022-10-17T06:53:02.209Z,6.95
2022-10-17T06:55:28.762Z,6.95
2022-10-17T06:57:58.839Z,7.22
2022-10-17T07:00:26.727Z,7.65
2022-10-17T07:02:53.260Z,6.97
2022-10-17T07:05:19.878Z,7.03
2022-10-17T07:07:48.578Z,6.72
2022-10-17T07:12:45.812Z,10.45
2022-10-17T07:15:12.792Z,10.27
2022-10-17T07:17:39.462Z,10.25
2022-10-17T07:20:06.618Z,10.05
2022-10-17T07:22:33.158Z,9.15
2022-10-17T07:24:59.721Z,7.55
2022-10-17T07:27:26.531Z,7.05
2022-10-17T07:29:53.152Z,7.10
2022-10-17T07:32:19.687Z,6.65
2022-10-17T07:34:46.271Z,5.55
2022-10-17T07:37:12.824Z,6.07
2022-10-17T07:39:40.050Z,5.35
2022-10-17T07:42:07.815Z,4.88
2022-10-17T07:44:35.509Z,4.18
2022-10-17T07:47:02.508Z,4.75
2022-10-17T07:49:29.474Z,4.38
2022-10-17T07:51:56.076Z,4.03
2022-10-17T07:54:22.736Z,4.20
2022-10-17T07:56:50.674Z,4.90
2022-10-17T07:59:20.231Z,4.75
2022-10-17T08:01:46.935Z,4.40
2022-10-17T08:04:13.498Z,3.95
2022-10-17T08:06:40.103Z,4.13
2022-10-17T08:09:06.675Z,4.30
2022-10-17T08:11:33.253Z,4.03
2022-10-17T08:13:59.864Z,4.28
2022-10-17T08:16:26.574Z,5.00
2022-10-17T08:18:53.318Z,3.65
2022-10-17T08:21:19.872Z,4.10
2022-10-17T08:23:46.553Z,3.47
2022-10-17T08:26:16.856Z,3.60
2022-10-17T08:28:43.619Z,4.32
2022-10-17T08:31:15.945Z,3.97
2022-10-17T08:33:42.584Z,4.10
2022-10-17T08:36:14.728Z,4.18
2022-10-17T08:38:43.669Z,3.72
2022-10-17T08:41:35.886Z,4.00
2022-10-17T08:44:31.121Z,4.05
2022-10-17T08:47:01.384Z,3.55
2022-10-17T08:49:43.652Z,3.72
2022-10-17T08:52:25.687Z,3.72
2022-10-17T08:54:52.592Z,3.83
2022-10-17T08:57:19.453Z,3.90
2022-10-17T08:59:52.042Z,4.30
2022-10-17T09:02:27.423Z,3.88
2022-10-17T09:05:14.631Z,3.88
2022-10-17T09:08:09.173Z,3.85
2022-10-17T09:10:57.354Z,4.10
2022-10-17T09:13:59.099Z,4.38
2022-10-17T09:16:40.374Z,3.55
2022-10-17T09:19:19.412Z,4.03
2022-10-17T09:21:53.612Z,3.78
2022-10-17T09:24:44.531Z,3.65
2022-10-17T09:30:46.690Z,3.97
2022-10-17T09:33:28.257Z,3.80
2022-10-17T09:36:04.896Z,4.35
2022-10-17T09:38:39.691Z,3.75
2022-10-17T09:41:39.106Z,3.60
2022-10-17T09:44:22.525Z,4.05
2022-10-17T09:47:19.637Z,4.13
2022-10-17T09:49:47.869Z,3.72
2022-10-17T09:52:25.353Z,3.28
2022-10-17T09:55:06.885Z,3.47
2022-10-17T09:57:53.636Z,3.80
2022-10-17T10:00:27.044Z,4.13
2022-10-17T10:03:18.193Z,4.22
2022-10-17T10:06:18.171Z,4.05
2022-10-17T10:08:58.431Z,4.10
2022-10-17T10:11:44.478Z,4.07
2022-10-17T10:14:13.959Z,4.05
2022-10-17T10:16:43.884Z,4.68
2022-10-17T10:19:26.302Z,4.23
2022-10-17T10:22:01.516Z,3.70
2022-10-17T10:24:30.988Z,4.28
2022-10-17T10:27:04.046Z,4.55
2022-10-17T10:29:49.871Z,4.20
2022-10-17T10:32:27.206Z,4.80
2022-10-17T10:34:57.362Z,4.20
2022-10-17T10:37:24.014Z,4.38
2022-10-17T10:39:54.629Z,4.47
2022-10-17T10:42:41.301Z,4.10
2022-10-17T10:45:42.896Z,4.55
2022-10-17T10:48:27.652Z,4.82
2022-10-17T10:50:59.854Z,4.55
2022-10-17T10:53:38.793Z,4.15
2022-10-17T10:56:24.415Z,3.58
2022-10-17T10:59:09.159Z,3.75
2022-10-17T11:02:00.872Z,4.35
2022-10-17T11:04:49.799Z,3.83
2022-10-17T11:07:22.643Z,3.88
2022-10-17T11:10:12.106Z,4.00
2022-10-17T11:12:56.265Z,3.67
2022-10-17T11:15:36.647Z,4.07
2022-10-17T11:18:08.419Z,3.72
2022-10-17T11:20:53.350Z,3.85
2022-10-17T11:23:42.152Z,3.40
2022-10-17T11:26:19.784Z,3.92
2022-10-17T11:28:46.423Z,4.22
2022-10-17T11:31:15.034Z,4.22
2022-10-17T11:34:19.603Z,3.70
2022-10-17T11:36:50.727Z,3.63
2022-10-17T11:39:20.397Z,3.90
2022-10-17T11:42:12.891Z,4.40
2022-10-17T11:44:41.307Z,4.07
2022-10-17T11:47:19.984Z,3.80
2022-10-17T11:49:53.223Z,3.15
2022-10-17T11:55:28.272Z,3.55
2022-10-17T11:58:10.097Z,4.13
2022-10-17T12:00:51.709Z,5.45
2022-10-17T12:03:33.427Z,3.78
2022-10-17T12:06:29.502Z,4.47
2022-10-17T12:09:10.430Z,3.85
2022-10-17T12:14:34.486Z,4.28
2022-10-17T12:17:02.240Z,3.90
2022-10-17T12:19:38.089Z,3.90
2022-10-17T12:22:28.660Z,4.60
2022-10-17T12:25:01.272Z,4.40
2022-10-17T12:27:34.324Z,4.30
2022-10-17T12:30:13.515Z,4.80
2022-10-17T12:33:12.365Z,4.10
2022-10-17T12:35:39.404Z,4.70
2022-10-17T12:38:06.065Z,4.50
2022-10-17T12:40:35.683Z,4.93
2022-10-17T12:43:23.392Z,4.35
2022-10-17T12:46:04.870Z,4.53
2022-10-17T12:48:34.369Z,4.18
2022-10-17T12:51:36.120Z,5.03
2022-10-17T12:54:12.002Z,4.10
2022-10-17T12:56:46.895Z,4.00
2022-10-17T12:59:33.916Z,5.20
2022-10-17T13:02:03.450Z,4.75
2022-10-17T13:04:31.666Z,3.97
2022-10-17T13:06:59.264Z,4.20
2022-10-17T13:09:36.798Z,4.38
2022-10-17T13:12:10.871Z,5.05
2022-10-17T13:14:41.629Z,4.40
2022-10-17T13:17:22.529Z,4.00
2022-10-17T13:19:49.198Z,4.38
2022-10-17T13:22:24.712Z,3.95
2022-10-17T13:24:53.227Z,4.20
2022-10-17T13:27:32.035Z,3.75
2022-10-17T13:30:01.279Z,4.03
2022-10-17T13:32:37.740Z,3.90
2022-10-17T13:35:13.487Z,3.83
2022-10-17T13:37:42.510Z,3.60
2022-10-17T13:40:50.705Z,4.63
2022-10-17T13:43:19.105Z,3.97
2022-10-17T13:46:32.645Z,3.55
2022-10-17T13:48:54.019Z,3.58
2022-10-17T13:51:20.931Z,3.45
2022-10-17T13:53:47.841Z,4.40
2022-10-17T13:56:29.628Z,4.35
2022-10-17T13:59:00.107Z,4.07
2022-10-17T14:01:28.697Z,4.30
2022-10-17T14:04:07.860Z,5.32
2022-10-17T14:06:37.203Z,3.50
2022-10-17T14:09:16.433Z,3.92
2022-10-17T14:11:44.636Z,4.10
2022-10-17T14:14:58.355Z,4.63
2022-10-17T14:17:27.699Z,4.15
2022-10-17T14:20:26.552Z,3.80
2022-10-17T14:23:17.615Z,4.50
2022-10-17T14:25:39.683Z,3.38
2022-10-17T14:28:12.750Z,3.70
2022-10-17T14:30:55.571Z,3.92
2022-10-17T14:33:31.669Z,4.18
2022-10-17T14:36:00.885Z,3.72
2022-10-17T14:38:29.170Z,3.50
2022-10-17T14:41:30.573Z,3.90
2022-10-17T14:43:57.923Z,4.30
2022-10-17T14:46:25.420Z,3.70
2022-10-17T14:48:54.816Z,3.70
2022-10-17T14:51:21.632Z,3.55
2022-10-17T14:54:22.218Z,3.60
2022-10-17T14:56:52.449Z,4.22
2022-10-17T14:59:51.410Z,3.47
2022-10-17T15:02:11.589Z,3.38
2022-10-17T15:04:38.301Z,3.97
2022-10-17T15:07:05.073Z,3.78
2022-10-17T15:09:31.713Z,3.20
2022-10-17T15:12:02.880Z,3.45
2022-10-17T15:14:29.430Z,3.47
2022-10-17T15:16:55.963Z,4.13
2022-10-17T15:19:22.543Z,3.75
2022-10-17T15:21:49.202Z,4.38
2022-10-17T15:24:15.896Z,4.28
2022-10-17T15:26:44.223Z,5.68
2022-10-17T15:29:15.290Z,4.88
2022-10-17T15:31:41.988Z,4.32
2022-10-17T15:34:08.568Z,4.68
2022-10-17T15:36:48.165Z,4.40
2022-10-17T15:39:15.986Z,4.70
2022-10-17T15:41:42.586Z,6.03
2022-10-17T15:44:09.098Z,4.47
2022-10-17T15:46:37.859Z,4.30
2022-10-17T15:49:10.060Z,3.97
2022-10-17T15:51:36.638Z,4.60
2022-10-17T15:54:04.898Z,4.60
2022-10-17T15:56:35.818Z,4.50
2022-10-17T16:01:33.762Z,4.88
2022-10-17T16:04:00.963Z,5.72
2022-10-17T16:06:28.340Z,4.80
2022-10-17T16:08:55.023Z,6.18
2022-10-17T16:11:35.687Z,4.72
2022-10-17T16:14:07.829Z,4.82
2022-10-17T16:16:34.716Z,5.40
2022-10-17T16:19:02.740Z,5.25
2022-10-17T16:21:32.672Z,5.32
2022-10-17T16:24:00.579Z,5.33
2022-10-17T16:26:28.216Z,20.92
2022-10-17T16:28:58.292Z,13.88
2022-10-17T16:31:29.320Z,11.75
2022-10-17T16:33:57.600Z,15.27
2022-10-17T16:36:24.423Z,13.18
2022-10-17T16:38:51.581Z,13.25
2022-10-17T16:41:28.714Z,11.85
2022-10-17T16:43:57.988Z,6.32
2022-10-17T16:46:26.194Z,6.22
2022-10-17T16:48:53.092Z,4.72
2022-10-17T16:51:20.625Z,4.30
2022-10-17T16:53:50.190Z,6.68
2022-10-17T16:56:19.250Z,8.52
2022-10-17T16:58:46.700Z,8.77
2022-10-17T17:01:23.230Z,7.90
2022-10-17T17:03:50.737Z,5.05
2022-10-17T17:06:20.706Z,6.53
2022-10-17T17:08:48.096Z,13.23
2022-10-17T17:11:16.728Z,10.75
2022-10-17T17:13:43.501Z,9.15
2022-10-17T17:16:15.768Z,6.93
2022-10-17T17:18:43.476Z,6.13
2022-10-17T17:21:11.011Z,5.32
2022-10-17T17:23:39.730Z,4.93
2022-10-17T17:26:21.581Z,5.18
2022-10-17T17:28:53.478Z,5.03
2022-10-17T17:31:23.529Z,4.40
2022-10-17T17:33:51.149Z,4.60
2022-10-17T17:36:22.914Z,4.20
2022-10-17T17:38:51.161Z,4.57
2022-10-17T17:41:19.263Z,4.05
2022-10-17T17:43:47.305Z,4.13
2022-10-17T17:46:16.640Z,3.65
2022-10-17T17:48:46.036Z,4.18
2022-10-17T17:51:14.367Z,3.83
2022-10-17T17:53:41.245Z,4.25
2022-10-17T17:56:16.722Z,9.57
2022-10-17T17:58:45.815Z,6.38
2022-10-17T18:04:25.638Z,6.45
2022-10-17T18:06:52.597Z,6.93
2022-10-17T18:09:20.378Z,5.53
2022-10-17T18:11:47.365Z,5.47
2022-10-17T18:14:14.185Z,6.20
2022-10-17T18:16:49.624Z,6.25
2022-10-17T18:19:17.104Z,5.65
2022-10-17T18:21:44.410Z,5.05
2022-10-17T18:24:11.227Z,5.38
2022-10-17T18:26:40.988Z,4.90
2022-10-17T18:29:07.821Z,5.38
2022-10-17T18:31:37.525Z,4.63
2022-10-17T18:34:06.017Z,4.88
2022-10-17T18:36:34.598Z,4.93
2022-10-17T18:39:02.716Z,4.43
2022-10-17T18:41:30.137Z,4.20
2022-10-17T18:43:57.754Z,4.70
2022-10-17T18:46:30.393Z,4.78
2022-10-17T18:48:57.368Z,5.45
2022-10-17T18:51:26.038Z,4.75
2022-10-17T18:53:55.741Z,5.13
2022-10-17T18:56:23.817Z,5.03
2022-10-17T18:58:51.238Z,3.92
2022-10-17T19:01:20.909Z,4.32
2022-10-17T19:03:49.776Z,5.30
2022-10-17T19:06:19.476Z,5.53
2022-10-17T19:08:46.884Z,6.18
2022-10-17T19:11:25.755Z,5.30
2022-10-17T19:13:53.261Z,4.75
2022-10-17T19:16:25.255Z,5.10
2022-10-17T19:18:54.630Z,5.30
2022-10-17T19:21:22.297Z,5.47
2022-10-17T19:23:53.381Z,5.07
2022-10-17T19:26:21.130Z,6.45
2022-10-17T19:28:48.507Z,6.22
2022-10-17T19:31:17.963Z,7.03
2022-10-17T19:33:45.381Z,6.78
2022-10-17T19:36:13.498Z,7.40
2022-10-17T19:38:40.162Z,7.18
2022-10-17T19:41:08.936Z,9.57
2022-10-17T19:43:37.566Z,10.27
2022-10-17T19:46:06.944Z,11.43
2022-10-17T19:48:36.948Z,12.25
2022-10-17T19:51:10.164Z,12.87
2022-10-17T19:53:37.608Z,11.77
2022-10-17T19:56:05.152Z,9.75
2022-10-17T19:58:34.201Z,10.85
2022-10-17T20:01:01.400Z,10.50
2022-10-17T20:03:28.911Z,12.07
2022-10-17T20:05:57.028Z,12.05
2022-10-17T20:08:23.714Z,9.52
2022-10-17T20:10:50.507Z,10.00
2022-10-17T20:13:17.528Z,11.10
2022-10-17T20:15:54.351Z,10.90
2022-10-17T20:18:22.626Z,8.98
2022-10-17T20:20:49.885Z,9.75
2022-10-17T20:23:16.785Z,9.10
2022-10-17T20:25:43.809Z,10.35
2022-10-17T20:28:11.036Z,10.38
2022-10-17T20:30:42.742Z,10.88
2022-10-17T20:33:09.606Z,10.60
2022-10-17T20:35:41.406Z,10.25
2022-10-17T20:38:08.318Z,11.40
2022-10-17T20:40:35.809Z,12.57
2022-10-17T20:43:07.644Z,12.38
2022-10-17T20:48:30.865Z,11.82
2022-10-17T20:50:58.144Z,10.23
2022-10-17T20:53:36.541Z,9.93
2022-10-17T20:56:09.796Z,10.48
2022-10-17T20:58:36.635Z,11.82
2022-10-17T21:01:08.533Z,9.45
2022-10-17T21:03:39.820Z,8.70
2022-10-17T21:06:10.093Z,9.50
2022-10-17T21:08:36.640Z,10.32
2022-10-17T21:11:15.300Z,10.15
2022-10-17T21:13:42.169Z,9.40
2022-10-17T21:16:11.685Z,10.27
2022-10-17T21:18:38.737Z,9.10
2022-10-17T21:21:17.296Z,10.10
2022-10-17T21:23:46.408Z,11.85
2022-10-17T21:26:13.709Z,10.60
2022-10-17T21:28:41.350Z,10.40
2022-10-17T21:31:14.333Z,9.45
2022-10-17T21:33:42.631Z,9.80
2022-10-17T21:36:10.515Z,8.57
2022-10-17T21:38:38.807Z,7.95
2022-10-17T21:41:07.444Z,9.30
2022-10-17T21:43:34.926Z,9.32
2022-10-17T21:46:03.727Z,10.98
2022-10-17T21:48:30.280Z,8.45
2022-10-17T21:51:02.422Z,7.75
2022-10-17T21:53:28.988Z,8.18
2022-10-17T21:55:59.582Z,9.05
2022-10-17T21:58:26.587Z,8.05
2022-10-17T22:00:53.368Z,8.02
2022-10-17T22:03:19.948Z,7.68
2022-10-17T22:05:46.558Z,9.82
2022-10-17T22:08:13.453Z,8.52
2022-10-17T22:10:40.869Z,8.63
2022-10-17T22:13:07.409Z,9.93
2022-10-17T22:15:34.032Z,10.65
2022-10-17T22:18:00.565Z,9.93
2022-10-17T22:20:27.151Z,9.48
2022-10-17T22:22:53.873Z,10.15
2022-10-17T22:25:20.609Z,10.70
2022-10-17T22:27:47.351Z,9.88
2022-10-17T22:30:13.969Z,9.80
2022-10-17T22:32:40.573Z,9.50
2022-10-17T22:35:07.798Z,9.30
2022-10-17T22:37:34.388Z,8.57
2022-10-17T22:40:00.908Z,8.45
2022-10-17T22:42:31.283Z,8.63
2022-10-17T22:44:57.925Z,10.57
2022-10-17T22:47:24.470Z,9.60
2022-10-17T22:49:51.017Z,10.15
2022-10-17T22:52:17.583Z,9.30
2022-10-17T22:54:44.152Z,9.07
2022-10-17T22:57:10.703Z,7.93
2022-10-17T22:59:37.272Z,8.25
2022-10-17T23:02:03.940Z,9.60
2022-10-17T23:04:30.628Z,8.13
2022-10-17T23:06:57.232Z,9.88
2022-10-17T23:09:23.849Z,9.40
2022-10-17T23:11:50.419Z,10.82
2022-10-17T23:14:17.357Z,10.75
2022-10-17T23:16:43.924Z,9.60
2022-10-17T23:19:10.453Z,9.90
2022-10-17T23:21:37.025Z,9.20
2022-10-17T23:24:03.632Z,9.20
2022-10-17T23:26:30.200Z,9.68
2022-10-17T23:28:56.882Z,8.77
2022-10-17T23:31:23.868Z,11.35
2022-10-17T23:33:50.476Z,10.32
2022-10-17T23:36:19.894Z,10.10
2022-10-17T23:38:47.904Z,9.30
2022-10-17T23:41:15.786Z,11.45
2022-10-17T23:43:43.631Z,10.55
2022-10-17T23:46:10.540Z,8.10
2022-10-17T23:48:38.519Z,8.50
2022-10-17T23:51:06.040Z,7.70
2022-10-17T23:53:32.716Z,7.85
2022-10-17T23:55:59.732Z,8.40
2022-10-17T23:58:26.385Z,8.60
